Time;durP1;ratioP1;P1;durP2;ratioP2;P2;SDS_P1;SDS_P2;PMS_P1;PMS_P2;Temp;Humidity;BMP_temperature;BMP_pressure;BME280_temperature;BME280_humidity;BME280_pressure;Samples;Min_cycle;Max_cycle;Signal;HPM_P1;HPM_P2
2023/10/01 00:01:10;;;;;;;18.40;6.80;;;;;;;10.99;70.99;100788.27;103718;1255;138005;-87
2023/10/01 00:03:58;;;;;;;21.10;6.50;;;;;;;10.96;71.10;100785.19;103815;1255;95106;-88
2023/10/01 00:06:46;;;;;;;24.50;7.10;;;;;;;10.93;71.13;100783.51;103764;1255;138524;-87
2023/10/01 00:09:34;;;;;;;19.00;6.70;;;;;;;10.89;71.22;100779.08;103832;1256;108404;-86
2023/10/01 00:12:18;;;;;;;15.00;6.80;;;;;;;10.88;71.32;100774.21;103724;1258;138160;-86
2023/10/01 00:15:10;;;;;;;17.30;6.80;;;;;;;10.85;71.32;100773.11;103761;1254;107705;-86
2023/10/01 00:17:51;;;;;;;15.00;6.80;;;;;;;10.81;71.48;100779.11;103686;1267;139528;-88
2023/10/01 00:20:33;;;;;;;16.80;6.70;;;;;;;10.77;71.53;100774.87;103821;1259;109738;-86
2023/10/01 00:23:10;;;;;;;20.90;6.60;;;;;;;10.76;71.68;100776.63;103663;1255;108317;-87
2023/10/01 00:25:58;;;;;;;18.20;7.30;;;;;;;10.74;71.70;100770.91;103882;1254;96320;-86
2023/10/01 00:28:46;;;;;;;15.50;7.10;;;;;;;10.72;71.82;100767.66;103874;1257;107802;-88
2023/10/01 00:31:36;;;;;;;15.60;6.70;;;;;;;10.72;71.92;100770.97;103719;1254;138182;-88
2023/10/01 00:34:13;;;;;;;16.30;6.60;;;;;;;10.69;71.91;100768.95;103922;1257;109927;-86
2023/10/01 00:37:22;;;;;;;19.40;6.10;;;;;;;10.67;71.95;100763.12;103667;1257;138440;-86
2023/10/01 00:40:05;;;;;;;18.90;6.60;;;;;;;10.66;72.11;100762.61;103834;1257;96434;-86
2023/10/01 00:42:53;;;;;;;19.60;6.20;;;;;;;10.67;72.19;100762.77;103698;1254;138338;-90
2023/10/01 00:45:41;;;;;;;16.50;6.20;;;;;;;10.65;72.32;100759.52;103835;1255;96378;-88
2023/10/01 00:48:52;;;;;;;24.60;6.50;;;;;;;10.63;72.44;100759.20;103616;1254;138609;-87
2023/10/01 00:51:43;;;;;;;18.00;6.50;;;;;;;10.62;72.46;100760.63;103807;1257;109123;-88
2023/10/01 00:54:31;;;;;;;20.20;7.20;;;;;;;10.62;72.48;100760.13;103779;1254;137916;-86
2023/10/01 00:57:18;;;;;;;18.60;6.80;;;;;;;10.61;72.55;100761.35;103817;1259;107633;-88
2023/10/01 01:00:13;;;;;;;14.90;6.00;;;;;;;10.62;72.69;100765.33;103622;1259;138548;-86
2023/10/01 01:02:58;;;;;;;18.30;7.10;;;;;;;10.64;72.60;100765.98;103807;1254;109422;-87
2023/10/01 01:05:57;;;;;;;17.70;6.60;;;;;;;10.63;72.63;100762.87;103711;1254;138607;-88
2023/10/01 01:08:52;;;;;;;21.80;7.00;;;;;;;10.64;72.82;100760.95;103800;1254;96996;-88
2023/10/01 01:11:42;;;;;;;18.30;6.50;;;;;;;10.65;72.77;100763.86;103803;1254;138466;-86
2023/10/01 01:14:50;;;;;;;17.50;6.50;;;;;;;10.66;72.70;100763.65;103789;1254;96465;-88
2023/10/01 01:17:38;;;;;;;18.60;6.00;;;;;;;10.65;72.86;100751.84;103971;1254;138674;-88
2023/10/01 01:20:30;;;;;;;14.90;6.80;;;;;;;10.67;72.82;100748.50;103751;1259;109040;-88
2023/10/01 01:23:24;;;;;;;17.40;6.70;;;;;;;10.65;72.76;100755.15;103762;1254;139255;-87
2023/10/01 01:26:11;;;;;;;14.90;6.60;;;;;;;10.66;72.82;100760.52;103693;1255;108853;-87
2023/10/01 01:29:16;;;;;;;20.00;6.50;;;;;;;10.68;72.93;100758.06;103749;1254;96439;-88
2023/10/01 01:32:13;;;;;;;16.20;5.80;;;;;;;10.65;72.87;100756.04;103823;1254;109616;-88
2023/10/01 01:34:54;;;;;;;16.70;6.20;;;;;;;10.63;72.98;100762.34;103913;1254;107114;-86
2023/10/01 01:37:47;;;;;;;16.00;5.90;;;;;;;10.64;73.06;100759.89;103753;1257;138798;-85
2023/10/01 01:40:31;;;;;;;16.80;6.60;;;;;;;10.63;72.98;100750.53;103776;1258;109353;-88
2023/10/01 01:43:21;;;;;;;15.10;6.10;;;;;;;10.61;73.14;100742.92;103074;1253;1002856;-87
2023/10/01 01:46:11;;;;;;;20.80;6.70;;;;;;;10.60;73.11;100736.16;103940;1254;109072;-86
2023/10/01 01:48:59;;;;;;;16.00;6.40;;;;;;;10.60;73.10;100736.52;103926;1254;137841;-85
2023/10/01 01:51:59;;;;;;;16.80;6.40;;;;;;;10.60;73.13;100736.85;103932;1257;96736;-87
2023/10/01 01:54:40;;;;;;;16.40;6.60;;;;;;;10.59;73.26;100732.69;103717;1257;138476;-88
2023/10/01 01:57:21;;;;;;;17.20;6.50;;;;;;;10.59;73.20;100733.90;103844;1257;96529;-86
2023/10/01 02:00:13;;;;;;;17.40;6.70;;;;;;;10.60;73.32;100742.95;103762;1254;138362;-86
2023/10/01 05:24:34;;;;;;;14.10;4.80;;;;;;;11.02;75.94;100708.29;100108;1293;636147;-75
2023/10/01 09:11:42;;;;;;;11.50;4.00;;;;;;;16.62;62.93;100746.05;100291;1291;636324;-75
2023/10/01 14:51:02;;;;;;;7.00;2.90;;;;;;;17.88;50.82;100636.28;100295;1290;635497;-73
2023/10/01 15:29:55;;;;;;;7.10;2.60;;;;;;;17.42;51.70;100634.40;100174;1297;652767;-85
2023/10/01 15:32:38;;;;;;;6.90;2.60;;;;;;;17.38;51.71;100636.19;103416;1263;136899;-87
2023/10/01 15:35:22;;;;;;;10.60;2.70;;;;;;;17.36;51.90;100634.75;103055;1264;106101;-85
2023/10/01 15:37:47;;;;;;;6.20;2.60;;;;;;;17.33;51.90;100633.48;102931;1267;137063;-86
2023/10/01 15:40:31;;;;;;;7.80;2.50;;;;;;;17.24;51.98;100624.66;103128;1264;109787;-87
2023/10/01 15:42:59;;;;;;;11.30;3.40;;;;;;;17.22;52.11;100628.46;101295;1260;2394350;-86
2023/10/01 15:45:30;;;;;;;5.90;3.60;;;;;;;17.17;52.19;100629.06;103278;1261;94497;-85
2023/10/01 15:47:59;;;;;;;8.30;2.60;;;;;;;17.12;52.42;100629.68;103329;1258;107471;-83
2023/10/01 15:50:38;;;;;;;10.20;2.80;;;;;;;17.10;52.49;100629.14;103246;1263;136918;-83
2023/10/01 15:53:17;;;;;;;11.00;2.40;;;;;;;17.06;52.70;100626.02;103438;1258;107383;-85
2023/10/01 15:55:56;;;;;;;9.40;2.70;;;;;;;17.00;52.85;100627.17;103224;1258;137368;-83
2023/10/01 15:58:24;;;;;;;9.00;2.70;;;;;;;16.95;53.02;100630.81;103385;1257;95160;-83
2023/10/01 16:00:52;;;;;;;6.60;2.50;;;;;;;16.88;53.15;100630.95;103309;1258;137112;-84
2023/10/01 16:03:29;;;;;;;8.00;2.30;;;;;;;16.84;53.47;100636.95;103230;1261;95278;-83
2023/10/01 16:06:08;;;;;;;7.30;2.90;;;;;;;16.79;53.66;100637.76;103365;1261;110383;-83
2023/10/01 16:08:36;;;;;;;5.90;2.50;;;;;;;16.75;53.91;100638.17;103227;1260;137041;-83
2023/10/01 16:11:09;;;;;;;11.00;3.20;;;;;;;16.69;54.19;100638.45;103383;1259;95121;-82
2023/10/01 16:13:38;;;;;;;11.80;3.10;;;;;;;16.65;54.49;100636.36;103270;1260;137530;-81
2023/10/01 16:16:18;;;;;;;10.70;2.80;;;;;;;16.59;54.78;100635.40;103372;1259;95089;-83
2023/10/01 16:18:46;;;;;;;8.20;2.50;;;;;;;16.54;55.05;100638.68;103233;1263;137447;-82
2023/10/01 16:21:26;;;;;;;5.80;2.50;;;;;;;16.49;55.34;100639.98;103389;1260;106845;-83
2023/10/01 16:24:00;;;;;;;7.50;2.50;;;;;;;16.41;55.55;100643.70;103391;1260;95087;-85
2023/10/01 16:26:29;;;;;;;7.90;2.50;;;;;;;16.37;55.78;100645.02;103592;1256;137519;-85
2023/10/01 16:29:12;;;;;;;13.70;3.20;;;;;;;16.30;56.06;100651.59;103643;1257;95155;-83
2023/10/01 16:31:57;;;;;;;9.50;4.60;;;;;;;16.24;56.32;100647.16;103612;1255;137376;-85
2023/10/01 16:34:39;;;;;;;11.00;3.10;;;;;;;16.19;56.58;100650.60;103665;1256;107932;-84
2023/10/01 16:37:21;;;;;;;7.20;2.90;;;;;;;16.13;56.88;100650.89;103564;1254;139230;-85
2023/10/01 16:39:46;;;;;;;9.10;3.20;;;;;;;16.08;57.10;100656.06;103562;1256;108527;-86
2023/10/01 16:42:44;;;;;;;12.70;3.10;;;;;;;16.02;57.28;100659.70;103555;1256;137759;-84
2023/10/01 16:45:20;;;;;;;8.10;2.80;;;;;;;15.94;57.54;100657.94;103699;1257;107615;-85
2023/10/01 16:47:52;;;;;;;7.90;2.80;;;;;;;15.90;57.79;100660.60;103682;1256;107747;-84
2023/10/01 16:50:46;;;;;;;10.20;3.40;;;;;;;15.85;57.93;100662.92;103529;1257;137857;-84
2023/10/01 16:53:11;;;;;;;9.20;3.00;;;;;;;15.80;58.14;100659.50;103706;1255;107902;-85
2023/10/01 16:55:48;;;;;;;8.00;2.50;;;;;;;15.75;58.39;100661.83;103834;1256;137877;-85
2023/10/01 16:58:15;;;;;;;11.60;3.10;;;;;;;15.71;58.50;100662.36;103652;1257;107341;-89
2023/10/01 17:00:40;;;;;;;12.10;3.00;;;;;;;15.68;58.61;100664.78;103512;1258;138253;-84
2023/10/01 17:03:11;;;;;;;10.10;2.70;;;;;;;15.67;58.76;100668.88;103497;1255;95608;-85
2023/10/01 17:05:40;;;;;;;12.20;3.10;;;;;;;15.62;59.00;100671.39;103680;1258;108094;-84
2023/10/01 17:08:13;;;;;;;10.10;3.20;;;;;;;15.59;59.08;100672.52;103550;1257;137623;-86
2023/10/01 17:10:50;;;;;;;10.10;3.10;;;;;;;15.57;59.19;100671.58;103608;1257;108542;-84
2023/10/01 17:13:33;;;;;;;9.90;4.30;;;;;;;15.54;59.30;100669.61;103497;1257;139373;-85
2023/10/01 17:16:19;;;;;;;13.90;3.40;;;;;;;15.50;59.46;100672.62;103657;1257;95379;-88
2023/10/01 17:18:52;;;;;;;9.40;3.00;;;;;;;15.45;59.59;100671.25;103542;1257;139064;-87
2023/10/01 17:21:28;;;;;;;13.40;3.60;;;;;;;15.41;59.77;100668.95;103598;1256;95670;-85
2023/10/01 17:24:15;;;;;;;9.40;3.50;;;;;;;15.37;59.79;100672.83;103707;1257;109394;-85
2023/10/01 17:26:49;;;;;;;11.00;4.00;;;;;;;15.31;60.01;100668.89;103485;1257;110038;-84
2023/10/01 17:29:36;;;;;;;11.10;3.40;;;;;;;15.32;60.10;100677.08;103474;1257;95516;-84
2023/10/01 17:32:12;;;;;;;9.80;3.60;;;;;;;15.30;60.22;100677.19;103521;1256;137790;-84
2023/10/01 17:34:46;;;;;;;14.30;5.20;;;;;;;15.27;60.33;100674.36;103659;1255;95277;-83
2023/10/01 17:37:20;;;;;;;11.30;4.70;;;;;;;15.23;60.41;100673.11;103612;1258;138331;-83
2023/10/01 17:39:54;;;;;;;14.10;4.60;;;;;;;15.20;60.58;100674.83;103630;1257;107418;-84
2023/10/01 17:42:20;;;;;;;11.50;4.20;;;;;;;15.18;60.68;100680.18;103624;1260;95418;-84
2023/10/01 17:44:48;;;;;;;15.60;4.30;;;;;;;15.16;60.77;100681.33;103681;1258;107705;-82
2023/10/01 17:47:19;;;;;;;11.80;3.70;;;;;;;15.14;60.78;100677.92;103453;1257;94995;-84
2023/10/01 17:50:15;;;;;;;13.60;4.30;;;;;;;15.12;60.89;100680.46;103508;1256;138330;-84
2023/10/01 17:52:59;;;;;;;13.70;4.10;;;;;;;15.08;60.96;100676.20;103604;1255;108248;-84
2023/10/01 17:55:33;;;;;;;9.90;4.60;;;;;;;15.06;61.01;100677.69;103588;1254;138562;-84
2023/10/01 17:58:07;;;;;;;11.20;4.00;;;;;;;15.04;61.09;100682.67;103721;1255;107662;-84
2023/10/01 18:00:42;;;;;;;12.70;5.50;;;;;;;15.02;61.20;100684.35;103744;1255;138182;-82
2023/10/01 18:03:19;;;;;;;14.70;5.10;;;;;;;15.00;61.30;100686.38;103669;1255;108656;-83
2023/10/01 18:05:58;;;;;;;10.10;4.00;;;;;;;14.99;61.40;100694.48;103673;1255;108691;-82
2023/10/01 18:08:35;;;;;;;12.50;4.50;;;;;;;14.96;61.44;100692.89;103657;1257;137820;-82
2023/10/01 18:11:13;;;;;;;13.30;4.60;;;;;;;14.94;61.54;100697.00;103651;1257;106108;-84
2023/10/01 18:13:40;;;;;;;13.30;5.60;;;;;;;14.92;61.63;100697.77;103812;1256;139823;-84
2023/10/01 18:16:08;;;;;;;10.60;4.70;;;;;;;14.91;61.68;100701.51;103662;1257;109204;-84
2023/10/01 18:18:52;;;;;;;14.50;5.40;;;;;;;14.88;61.70;100706.00;103914;1256;138901;-85
2023/10/01 18:21:21;;;;;;;15.00;4.60;;;;;;;14.86;61.81;100710.27;103604;1257;95088;-85
2023/10/01 18:23:45;;;;;;;15.20;4.90;;;;;;;14.83;61.99;100705.48;103628;1256;108243;-84
2023/10/01 18:26:11;;;;;;;13.80;4.70;;;;;;;14.81;62.04;100702.08;103590;1257;138758;-83
2023/10/01 18:28:43;;;;;;;14.10;4.50;;;;;;;14.79;62.20;100700.61;103669;1260;109576;-83
2023/10/01 18:31:17;;;;;;;17.70;5.10;;;;;;;14.75;62.26;100700.94;103508;1260;138226;-84
2023/10/01 18:33:48;;;;;;;13.80;5.00;;;;;;;14.71;62.40;100703.20;103553;1260;94968;-83
2023/10/01 18:36:31;;;;;;;12.80;4.80;;;;;;;14.67;62.51;100702.88;103557;1255;138082;-82
2023/10/01 18:38:59;;;;;;;18.80;5.70;;;;;;;14.62;62.57;100699.23;103642;1256;94965;-85
2023/10/01 18:41:28;;;;;;;10.90;5.10;;;;;;;14.59;62.70;100704.45;103618;1256;108397;-83
2023/10/01 18:43:56;;;;;;;17.60;6.10;;;;;;;14.55;62.83;100704.76;103465;1258;138075;-85
2023/10/01 18:46:41;;;;;;;15.90;5.70;;;;;;;14.52;62.92;100708.36;103479;1260;95349;-83
2023/10/01 18:49:18;;;;;;;14.20;5.70;;;;;;;14.47;63.00;100708.04;103562;1258;138102;-83
2023/10/01 18:52:02;;;;;;;17.00;6.40;;;;;;;14.41;63.19;100708.63;103611;1256;94987;-84
2023/10/01 18:54:47;;;;;;;15.00;6.80;;;;;;;14.38;63.30;100710.67;103462;1257;139964;-84
2023/10/01 18:57:33;;;;;;;18.50;6.80;;;;;;;14.34;63.38;100710.64;103578;1256;108673;-83
2023/10/01 19:00:21;;;;;;;15.80;6.40;;;;;;;14.28;63.51;100707.20;103669;1257;95087;-84
2023/10/01 19:03:01;;;;;;;15.20;6.10;;;;;;;14.25;63.77;100710.34;103753;1260;107632;-83
2023/10/01 19:05:46;;;;;;;21.60;6.90;;;;;;;14.21;63.78;100712.92;103747;1254;95258;-83
2023/10/01 19:08:32;;;;;;;17.50;6.50;;;;;;;14.17;63.97;100715.33;103599;1255;137934;-83
2023/10/01 19:11:16;;;;;;;14.60;7.40;;;;;;;14.14;64.04;100718.60;103709;1254;107193;-84
2023/10/01 19:13:54;;;;;;;13.80;6.90;;;;;;;14.13;64.04;100719.55;103762;1254;138497;-83
2023/10/01 19:16:38;;;;;;;16.90;6.90;;;;;;;14.08;64.18;100716.25;103863;1252;107285;-84
2023/10/01 19:19:27;;;;;;;16.90;7.20;;;;;;;14.02;64.30;100717.70;103852;1254;138296;-84
2023/10/01 19:22:12;;;;;;;16.90;7.20;;;;;;;13.98;64.48;100713.99;103754;1257;109600;-84
2023/10/01 19:24:56;;;;;;;17.10;6.60;;;;;;;13.96;64.60;100716.55;103640;1255;138554;-84
2023/10/01 19:27:40;;;;;;;17.40;6.90;;;;;;;13.92;64.72;100715.29;103751;1254;95284;-84
2023/10/01 19:30:25;;;;;;;19.10;6.70;;;;;;;13.90;64.77;100723.39;103633;1254;138724;-83
2023/10/01 19:33:10;;;;;;;13.30;6.20;;;;;;;13.88;64.91;100723.47;103768;1254;94499;-83
2023/10/01 19:35:41;;;;;;;16.00;6.50;;;;;;;13.87;65.00;100722.65;103706;1257;108232;-82
2023/10/01 19:38:25;;;;;;;13.40;6.20;;;;;;;13.84;64.97;100721.04;103548;1254;138703;-84
2023/10/01 19:41:08;;;;;;;18.10;6.40;;;;;;;13.79;65.18;100721.20;103701;1255;95066;-83
2023/10/01 19:43:54;;;;;;;15.50;6.30;;;;;;;13.73;65.18;100724.04;103551;1254;139093;-85
2023/10/01 19:46:39;;;;;;;13.00;5.70;;;;;;;13.70;65.30;100731.00;103667;1254;95231;-84
2023/10/01 19:49:18;;;;;;;18.30;6.40;;;;;;;13.65;65.48;100726.45;103596;1254;138922;-85
2023/10/01 19:51:55;;;;;;;13.50;6.00;;;;;;;13.61;65.67;100723.26;103725;1255;107633;-83
2023/10/01 19:54:42;;;;;;;17.90;6.10;;;;;;;13.59;65.86;100721.95;103570;1259;139136;-85
2023/10/01 19:57:38;;;;;;;17.70;6.80;;;;;;;13.56;65.92;100721.89;103646;1255;109628;-83
2023/10/01 20:00:29;;;;;;;12.70;5.80;;;;;;;13.54;66.11;100716.39;103763;1254;96436;-83
2023/10/01 20:03:11;;;;;;;14.60;6.20;;;;;;;13.50;66.21;100719.50;103792;1256;110682;-84
2023/10/01 20:05:57;;;;;;;18.10;6.40;;;;;;;13.46;66.48;100719.11;103738;1258;109253;-84
2023/10/01 20:08:27;;;;;;;15.20;6.00;;;;;;;13.43;66.51;100713.26;103704;1254;139212;-84
2023/10/01 20:11:11;;;;;;;15.20;6.40;;;;;;;13.42;66.68;100718.20;103801;1257;107403;-83
2023/10/01 20:13:55;;;;;;;14.70;5.40;;;;;;;13.40;66.84;100722.30;103684;1257;138664;-84
2023/10/01 20:16:30;;;;;;;14.20;6.20;;;;;;;13.39;67.00;100721.48;103793;1256;109818;-83
2023/10/01 20:19:06;;;;;;;16.60;6.20;;;;;;;13.37;67.10;100721.39;103675;1255;138927;-83
2023/10/01 20:21:51;;;;;;;16.40;6.30;;;;;;;13.34;67.15;100722.70;103827;1254;96463;-83
2023/10/01 20:24:22;;;;;;;15.00;6.80;;;;;;;13.30;67.26;100723.01;103689;1258;107623;-83
2023/10/01 20:27:08;;;;;;;17.60;6.70;;;;;;;13.29;67.38;100722.02;103636;1258;96497;-83
2023/10/01 20:29:55;;;;;;;16.30;6.60;;;;;;;13.27;67.36;100721.35;103707;1255;110851;-86
2023/10/01 20:32:23;;;;;;;17.40;6.40;;;;;;;13.24;67.54;100717.98;103536;1259;138964;-85
2023/10/01 20:34:58;;;;;;;13.30;7.00;;;;;;;13.22;67.60;100719.80;103704;1255;96839;-84
2023/10/01 20:37:42;;;;;;;18.00;7.10;;;;;;;13.20;67.71;100720.20;103559;1259;139207;-84
2023/10/01 20:40:20;;;;;;;17.00;6.60;;;;;;;13.17;67.75;100720.65;103662;1255;96982;-86
2023/10/01 20:43:05;;;;;;;17.10;6.10;;;;;;;13.15;67.96;100720.73;103569;1257;138552;-84
2023/10/01 20:45:39;;;;;;;20.00;6.80;;;;;;;13.15;68.00;100722.11;103641;1257;107621;-83
2023/10/01 20:48:19;;;;;;;15.20;6.10;;;;;;;13.14;68.14;100718.16;103713;1256;96739;-83
2023/10/01 20:51:10;;;;;;;17.60;6.70;;;;;;;13.13;68.22;100720.29;103720;1255;107459;-82
2023/10/01 20:53:45;;;;;;;19.70;6.90;;;;;;;13.11;68.39;100722.98;103753;1254;96499;-84
2023/10/01 20:56:32;;;;;;;14.70;7.00;;;;;;;13.09;68.42;100722.67;103585;1254;138417;-85
2023/10/01 20:59:17;;;;;;;13.80;7.00;;;;;;;13.05;68.64;100722.83;103784;1255;108483;-81
2023/10/01 21:02:08;;;;;;;17.50;7.30;;;;;;;13.02;68.71;100722.23;103692;1255;138328;-82
2023/10/01 21:04:53;;;;;;;15.50;7.30;;;;;;;12.99;68.67;100721.27;103746;1254;108379;-82
2023/10/01 21:07:28;;;;;;;16.40;7.30;;;;;;;12.98;68.85;100720.61;103621;1254;138528;-84
2023/10/01 21:10:17;;;;;;;14.30;7.10;;;;;;;12.97;69.06;100721.53;103799;1255;109961;-83
2023/10/01 21:13:01;;;;;;;15.70;7.30;;;;;;;12.96;68.94;100724.00;103713;1254;138810;-84
2023/10/01 21:15:53;;;;;;;19.50;7.50;;;;;;;12.95;69.22;100725.62;103654;1258;97064;-84
2023/10/01 21:18:29;;;;;;;17.50;7.50;;;;;;;12.94;69.21;100728.80;103741;1255;108205;-83
2023/10/01 21:20:58;;;;;;;17.40;7.30;;;;;;;12.92;69.35;100727.08;103627;1255;96356;-85
2023/10/01 21:23:25;;;;;;;17.40;8.20;;;;;;;12.90;69.47;100729.25;103652;1260;110909;-83
2023/10/01 21:26:22;;;;;;;16.20;7.90;;;;;;;12.85;69.48;100726.13;103513;1255;138465;-84
2023/10/01 21:29:18;;;;;;;14.60;7.50;;;;;;;12.86;69.76;100725.20;103736;1255;96781;-82
2023/10/01 21:32:01;;;;;;;20.20;8.20;;;;;;;12.83;69.80;100728.31;103654;1254;138187;-84
2023/10/01 21:34:47;;;;;;;17.70;7.80;;;;;;;12.80;69.82;100720.04;103709;1257;96493;-83
2023/10/01 21:37:32;;;;;;;18.00;8.30;;;;;;;12.78;69.97;100725.14;103698;1255;138200;-86
2023/10/01 21:40:02;;;;;;;18.90;8.10;;;;;;;12.76;70.02;100728.18;103707;1255;107438;-83
2023/10/01 21:42:49;;;;;;;17.80;8.50;;;;;;;12.74;70.18;100730.33;103638;1254;139059;-83
2023/10/01 21:45:40;;;;;;;18.40;8.60;;;;;;;12.72;70.26;100728.64;103791;1257;108298;-83
2023/10/01 21:48:15;;;;;;;15.80;8.00;;;;;;;12.71;70.50;100726.77;103723;1254;96570;-83
2023/10/01 21:51:02;;;;;;;19.60;8.20;;;;;;;12.67;70.36;100722.88;103769;1255;108844;-82
2023/10/01 21:53:43;;;;;;;19.80;7.80;;;;;;;12.66;70.61;100724.14;103742;1255;105342;-83
2023/10/01 21:56:27;;;;;;;17.00;7.90;;;;;;;12.64;70.67;100725.41;103644;1254;138267;-85
2023/10/01 21:59:13;;;;;;;22.20;8.80;;;;;;;12.64;70.77;100729.09;103656;1255;107247;-84
2023/10/01 22:02:01;;;;;;;15.80;7.70;;;;;;;12.63;70.92;100733.66;103609;1254;138370;-83
2023/10/01 22:04:50;;;;;;;15.10;7.90;;;;;;;12.62;70.99;100735.79;103737;1255;110086;-83
2023/10/01 22:07:29;;;;;;;22.50;7.90;;;;;;;12.61;71.13;100736.16;103415;1255;138477;-83
2023/10/01 22:10:24;;;;;;;19.40;8.20;;;;;;;12.61;71.14;100733.05;103767;1254;96503;-83
2023/10/01 22:13:10;;;;;;;20.00;8.40;;;;;;;12.61;71.25;100730.26;103682;1257;138444;-83
2023/10/01 22:15:54;;;;;;;14.10;8.00;;;;;;;12.59;71.21;100731.19;103738;1255;96379;-84
2023/10/01 22:18:39;;;;;;;16.80;7.80;;;;;;;12.56;71.26;100727.98;103601;1255;138388;-84
2023/10/01 22:21:28;;;;;;;15.80;8.10;;;;;;;12.56;71.46;100731.27;103699;1255;107940;-83
2023/10/01 22:24:16;;;;;;;19.60;8.50;;;;;;;12.55;71.60;100728.34;103668;1255;96529;-84
2023/10/01 22:26:40;;;;;;;17.50;8.40;;;;;;;12.56;71.64;100727.27;103487;1258;138666;-82
2023/10/01 22:29:27;;;;;;;18.10;8.50;;;;;;;12.56;71.73;100723.06;103726;1254;96429;-84
2023/10/01 22:32:11;;;;;;;15.30;8.20;;;;;;;12.56;71.82;100725.16;103484;1260;138461;-83
2023/10/01 22:34:56;;;;;;;17.40;8.40;;;;;;;12.55;71.92;100725.89;103767;1255;109674;-83
2023/10/01 22:37:41;;;;;;;16.40;8.40;;;;;;;12.54;71.96;100722.10;103766;1254;139613;-83
2023/10/01 22:40:25;;;;;;;16.60;8.50;;;;;;;12.53;72.07;100724.38;103736;1254;107306;-82
2023/10/01 22:43:03;;;;;;;20.00;9.30;;;;;;;12.52;72.16;100728.07;103587;1254;138475;-83
2023/10/01 22:45:54;;;;;;;18.60;9.00;;;;;;;12.49;72.37;100731.33;103775;1255;110669;-82
2023/10/01 22:48:43;;;;;;;19.10;8.70;;;;;;;12.49;72.37;100732.38;103783;1256;107199;-82
2023/10/01 22:51:30;;;;;;;21.40;8.20;;;;;;;12.47;72.55;100731.56;103834;1255;97022;-82
2023/10/01 22:54:14;;;;;;;17.20;8.70;;;;;;;12.46;72.68;100731.24;103813;1256;110329;-83
2023/10/01 22:56:54;;;;;;;18.40;8.60;;;;;;;12.47;72.60;100733.67;103651;1255;96315;-84
2023/10/01 22:59:21;;;;;;;17.30;8.60;;;;;;;12.47;72.73;100733.69;102921;1256;1003071;-82
2023/10/01 23:42:03;;;;;;;17.80;8.70;;;;;;;12.23;73.96;100748.20;102424;1265;94377;-78
